Time;durP1;ratioP1;P1;durP2;ratioP2;P2;SDS_P1;SDS_P2;PMS_P1;PMS_P2;Temp;Humidity;BMP_temperature;BMP_pressure;BME280_temperature;BME280_humidity;BME280_pressure;Samples;Min_cycle;Max_cycle;Signal;HPM_P1;HPM_P2
2020/12/27 00:00:49;;;;;;;30.00;16.07;;;;;;;-2.29;82.63;100660.14;1748784;81;25710;-50
2020/12/27 00:03:16;;;;;;;38.30;18.87;;;;;;;-2.31;82.82;100653.72;1749657;81;25630;-50
2020/12/27 00:05:46;;;;;;;34.10;16.77;;;;;;;-2.32;82.67;100646.79;1748853;81;26305;-47
2020/12/27 00:08:12;;;;;;;;;;;;;;;-2.32;82.54;100644.14;1751904;81;26067;-46
2020/12/27 00:10:39;;;;;;;31.50;14.78;;;;;;;-2.33;82.85;100645.19;1713463;83;25808;-50
2020/12/27 00:13:05;;;;;;;33.08;16.45;;;;;;;-2.34;83.04;100648.05;1684692;84;25830;-47
2020/12/27 00:15:32;;;;;;;33.65;16.50;;;;;;;-2.45;82.87;100634.46;1715387;83;25730;-46
2020/12/27 00:18:00;;;;;;;40.28;17.90;;;;;;;-2.37;83.00;100637.87;1711474;82;26406;-46
2020/12/27 00:20:26;;;;;;;34.25;17.98;;;;;;;-2.38;82.97;100636.23;1715387;83;25671;-47
2020/12/27 00:22:55;;;;;;;32.42;16.17;;;;;;;-2.38;82.97;100637.06;1716293;83;25615;-48
2020/12/27 00:25:22;;;;;;;31.60;16.10;;;;;;;-2.39;83.16;100640.73;1715854;83;25631;-48
2020/12/27 00:27:48;;;;;;;31.75;16.73;;;;;;;-2.38;83.57;100641.04;1716042;83;25752;-47
2020/12/27 00:30:15;;;;;;;30.20;16.65;;;;;;;-2.39;83.08;100638.08;1715877;83;25911;-48
2020/12/27 00:32:42;;;;;;;31.33;17.10;;;;;;;-2.39;83.02;100635.43;1716065;83;25651;-48
2020/12/27 00:35:09;;;;;;;31.10;15.93;;;;;;;-2.40;83.15;100637.80;1715636;82;25840;-49
2020/12/27 00:37:35;;;;;;;31.48;16.07;;;;;;;-2.40;83.28;100632.50;1716356;83;25900;-47
2020/12/27 00:40:04;;;;;;;35.88;17.17;;;;;;;-2.39;83.24;100622.70;1715774;83;25629;-50
2020/12/27 00:42:30;;;;;;;33.10;16.87;;;;;;;-2.39;83.15;100630.66;1716436;83;26390;-48
2020/12/27 00:44:57;;;;;;;32.83;16.07;;;;;;;-2.40;83.18;100619.74;1715643;83;25628;-50
2020/12/27 00:47:24;;;;;;;34.27;17.20;;;;;;;-2.40;83.35;100627.70;1716366;83;25707;-49
2020/12/27 00:49:50;;;;;;;34.20;17.45;;;;;;;-2.39;83.26;100628.00;1715842;83;25717;-48
2020/12/27 00:52:17;;;;;;;29.20;15.65;;;;;;;-2.40;83.19;100630.34;1716058;83;25600;-49
2020/12/27 00:54:43;;;;;;;32.10;16.45;;;;;;;-2.41;83.31;100626.89;1715859;83;26136;-47
2020/12/27 00:57:10;;;;;;;37.95;16.90;;;;;;;-2.41;83.16;100631.39;1715901;83;25754;-48
2020/12/27 00:59:36;;;;;;;29.98;16.77;;;;;;;-2.41;83.16;100628.73;1715874;83;25796;-48
2020/12/27 01:02:03;;;;;;;31.23;15.25;;;;;;;-2.42;83.25;100630.55;1715688;83;25763;-48
2020/12/27 01:04:30;;;;;;;30.17;15.32;;;;;;;-2.43;83.54;100626.30;1715418;83;26354;-49
2020/12/27 01:06:57;;;;;;;25.12;14.20;;;;;;;-2.45;83.33;100627.84;1715857;83;25802;-50
2020/12/27 01:09:24;;;;;;;33.75;16.10;;;;;;;-2.48;83.35;100622.96;1715388;83;25930;-49
2020/12/27 01:11:50;;;;;;;32.90;15.63;;;;;;;-2.50;83.39;100611.77;1716080;83;25783;-50
2020/12/27 01:14:17;;;;;;;32.00;15.95;;;;;;;-2.50;83.35;100612.30;1715721;83;25728;-50
2020/12/27 01:16:49;;;;;;;33.18;14.20;;;;;;;-2.50;83.22;100612.30;1716181;83;25606;-45
2020/12/27 01:19:17;;;;;;;29.98;14.73;;;;;;;-2.53;83.32;100612.72;1711986;82;26976;-47
2020/12/27 01:21:44;;;;;;;30.85;15.30;;;;;;;-2.54;83.42;100603.94;1716204;83;25763;-46
2020/12/27 01:24:11;;;;;;;30.82;14.98;;;;;;;-2.55;83.33;100604.18;1716061;83;25850;-46
2020/12/27 01:26:38;;;;;;;25.65;13.22;;;;;;;-2.56;83.37;100607.84;1716066;83;25616;-46
2020/12/27 01:29:05;;;;;;;28.60;14.73;;;;;;;-2.56;83.67;100598.05;1716010;83;25720;-45
2020/12/27 01:31:32;;;;;;;30.02;14.63;;;;;;;-2.57;83.52;100582.37;1716064;83;25786;-45
2020/12/27 01:33:59;;;;;;;29.75;14.28;;;;;;;-2.59;83.49;100581.25;1718545;82;25675;-44
2020/12/27 01:36:32;;;;;;;27.22;14.25;;;;;;;-2.59;83.42;100587.08;1709873;83;25698;-47
2020/12/27 01:39:04;;;;;;;33.85;14.43;;;;;;;-2.60;83.52;100588.92;1732902;82;25690;-46
2020/12/27 01:41:30;;;;;;;27.13;13.55;;;;;;;-2.60;83.47;100575.68;1710166;83;25734;-45
2020/12/27 01:44:07;;;;;;;30.40;14.85;;;;;;;-2.61;83.60;100581.19;1732578;82;25707;-46
2020/12/27 01:46:39;;;;;;;29.12;13.83;;;;;;;-2.63;83.57;100577.42;1710123;83;25895;-49
2020/12/27 01:49:07;;;;;;;26.15;13.03;;;;;;;-2.64;83.68;100564.70;1732500;82;25695;-49
2020/12/27 01:51:34;;;;;;;34.53;13.85;;;;;;;-2.65;83.60;100566.24;1732855;82;25983;-45
2020/12/27 01:54:01;;;;;;;27.90;12.55;;;;;;;-2.66;83.50;100565.93;1710040;83;25824;-44
2020/12/27 01:56:42;;;;;;;29.70;13.20;;;;;;;-2.67;83.53;100563.00;1733006;82;25734;-45
2020/12/27 01:59:13;;;;;;;26.70;13.25;;;;;;;-2.65;83.54;100562.27;1710017;83;25684;-46
2020/12/27 02:01:40;;;;;;;24.12;12.15;;;;;;;-2.66;83.57;100563.28;1732826;82;25653;-46
2020/12/27 02:04:07;;;;;;;25.52;12.55;;;;;;;-2.66;83.53;100566.73;1710031;83;25677;-48
2020/12/27 02:06:34;;;;;;;28.45;12.50;;;;;;;-2.67;83.42;100563.00;1732660;82;25598;-46
2020/12/27 02:09:01;;;;;;;30.72;13.72;;;;;;;-2.68;83.53;100566.66;1710012;83;25789;-45
2020/12/27 02:11:27;;;;;;;32.73;13.53;;;;;;;-2.68;83.41;100562.17;1732489;82;26347;-46
2020/12/27 02:13:58;;;;;;;26.10;11.83;;;;;;;-2.69;83.42;100562.37;1732850;82;25716;-46
2020/12/27 02:16:28;;;;;;;30.30;13.15;;;;;;;-2.70;83.49;100564.23;1717630;82;25865;-46
2020/12/27 02:18:56;;;;;;;25.90;12.73;;;;;;;-2.70;83.34;100552.31;1687925;83;25673;-49
2020/12/27 02:21:23;;;;;;;27.85;13.15;;;;;;;-2.71;83.48;100563.91;1661143;86;27294;-45
2020/12/27 02:23:59;;;;;;;27.17;12.35;;;;;;;-2.73;83.42;100559.35;1660828;85;25665;-46
2020/12/27 02:26:27;;;;;;;23.92;11.97;;;;;;;-2.73;83.44;100561.20;1678576;85;25686;-45
2020/12/27 02:28:55;;;;;;;28.57;13.48;;;;;;;-2.77;83.61;100556.84;1678224;85;25693;-45
2020/12/27 02:31:24;;;;;;;25.68;13.10;;;;;;;-2.77;83.51;100542.28;1650467;86;25733;-45
2020/12/27 02:33:51;;;;;;;28.65;12.93;;;;;;;-2.79;83.34;100540.38;1678314;85;26180;-48
2020/12/27 02:36:18;;;;;;;26.82;12.78;;;;;;;-2.80;83.35;100530.80;1660800;86;25734;-46
2020/12/27 02:38:45;;;;;;;28.02;13.93;;;;;;;-2.82;83.45;100526.23;1678377;85;25717;-45
2020/12/27 02:41:18;;;;;;;29.40;13.75;;;;;;;-2.84;83.36;100526.44;1678417;85;25713;-48
2020/12/27 02:43:45;;;;;;;28.38;13.45;;;;;;;-2.87;83.42;100520.77;1650592;86;25545;-49
2020/12/27 02:46:27;;;;;;;29.32;13.22;;;;;;;-2.86;83.37;100528.98;1678160;85;25720;-46
2020/12/27 02:48:54;;;;;;;25.43;13.43;;;;;;;-2.88;83.38;100528.40;1678567;85;25808;-47
2020/12/27 02:51:22;;;;;;;28.57;13.20;;;;;;;-2.90;83.39;100516.70;1678234;84;25833;-44
2020/12/27 02:53:53;;;;;;;36.05;14.60;;;;;;;-2.91;83.44;100512.45;1678453;85;25738;-45
2020/12/27 02:56:23;;;;;;;29.45;12.40;;;;;;;-2.92;83.34;100512.13;1678554;85;25821;-47
2020/12/27 02:58:50;;;;;;;;;;;;;;;-2.93;83.44;100502.56;1680800;85;26670;-43
2020/12/27 03:01:17;;;;;;;28.40;12.37;;;;;;;-2.93;83.35;100497.78;1678390;85;25715;-46
2020/12/27 03:03:44;;;;;;;30.10;13.93;;;;;;;-2.95;83.29;100486.61;1678251;85;25863;-46
2020/12/27 03:06:11;;;;;;;26.42;13.48;;;;;;;-2.95;83.28;100477.34;1678325;84;26329;-46
2020/12/27 03:08:39;;;;;;;30.48;12.70;;;;;;;-2.96;83.23;100483.16;1678014;84;25697;-44
2020/12/27 03:11:07;;;;;;;25.68;12.35;;;;;;;-2.96;83.25;100478.36;1678544;84;27295;-45
2020/12/27 03:13:34;;;;;;;24.25;12.58;;;;;;;-2.95;83.26;100482.64;1649917;86;25800;-44
2020/12/27 03:16:03;;;;;;;29.12;12.90;;;;;;;-2.96;83.15;100479.68;1650422;86;25668;-45
2020/12/27 03:18:30;;;;;;;27.00;12.53;;;;;;;-2.96;83.08;100477.87;1714590;83;25727;-45
2020/12/27 03:20:58;;;;;;;26.45;12.28;;;;;;;-2.97;83.02;100474.91;1719722;83;25792;-47
2020/12/27 03:23:25;;;;;;;27.32;12.37;;;;;;;-2.97;82.97;100474.11;1720215;83;25758;-47
2020/12/27 03:25:51;;;;;;;27.50;12.43;;;;;;;-2.97;82.95;100464.84;1719691;83;26068;-44
2020/12/27 03:28:18;;;;;;;24.40;12.47;;;;;;;-2.98;82.86;100464.53;1720088;82;25594;-46
2020/12/27 03:30:44;;;;;;;23.90;11.75;;;;;;;-2.97;82.84;100463.52;1719858;82;25638;-48
2020/12/27 03:33:11;;;;;;;27.15;13.15;;;;;;;-2.98;82.83;100471.95;1719924;82;25701;-47
2020/12/27 03:35:37;;;;;;;23.07;11.88;;;;;;;-2.97;82.72;100484.17;1719716;81;25914;-46
2020/12/27 03:38:04;;;;;;;28.55;13.03;;;;;;;-2.96;82.68;100487.63;1719904;82;25729;-44
2020/12/27 03:40:31;;;;;;;21.48;10.82;;;;;;;-2.99;82.62;100484.11;1719769;82;25547;-48
2020/12/27 03:42:57;;;;;;;26.62;13.18;;;;;;;-3.00;82.63;100480.63;1719926;83;25685;-45
2020/12/27 03:45:25;;;;;;;26.80;13.20;;;;;;;-3.03;82.52;100483.70;1719805;83;25601;-45
2020/12/27 03:47:54;;;;;;;25.88;12.63;;;;;;;-3.04;82.49;100483.42;1720228;83;26351;-47
2020/12/27 03:50:24;;;;;;;28.00;11.88;;;;;;;-3.07;82.50;100484.64;1719662;83;26220;-45
2020/12/27 03:52:51;;;;;;;31.48;13.25;;;;;;;-3.07;82.51;100491.78;1720276;82;25723;-45
2020/12/27 03:55:17;;;;;;;22.10;11.35;;;;;;;-3.08;82.46;100486.17;1719565;82;25709;-44
2020/12/27 03:57:44;;;;;;;28.17;11.75;;;;;;;-3.08;82.52;100488.82;1720181;83;25656;-44
2020/12/27 04:00:11;;;;;;;23.92;11.50;;;;;;;-3.11;82.55;100489.27;1719659;83;25903;-45
2020/12/27 04:02:38;;;;;;;28.73;12.98;;;;;;;-3.12;82.49;100488.96;1720119;83;25672;-45
2020/12/27 04:05:04;;;;;;;32.80;13.32;;;;;;;-3.14;82.44;100479.91;1719806;83;25874;-47
2020/12/27 04:07:32;;;;;;;26.33;12.10;;;;;;;-3.15;82.42;100475.66;1719597;82;25725;-45
2020/12/27 04:10:00;;;;;;;28.12;12.43;;;;;;;-3.15;82.33;100482.28;1719457;83;25642;-47
2020/12/27 04:12:27;;;;;;;26.52;9.95;;;;;;;-3.15;82.36;100476.15;1719705;83;26362;-47
2020/12/27 04:14:53;;;;;;;28.92;12.15;;;;;;;-3.16;82.39;100473.23;1719201;83;25696;-44
2020/12/27 04:17:20;;;;;;;26.17;11.63;;;;;;;-3.18;82.29;100477.41;1719648;83;26457;-47
2020/12/27 04:19:47;;;;;;;27.80;12.28;;;;;;;-3.19;82.28;100471.80;1715607;82;25573;-48
2020/12/27 04:22:14;;;;;;;25.08;11.68;;;;;;;-3.20;82.22;100471.52;1720211;82;26429;-48
2020/12/27 04:24:40;;;;;;;25.70;11.63;;;;;;;-3.21;82.21;100464.59;1719675;83;26237;-47
2020/12/27 04:27:08;;;;;;;23.18;11.60;;;;;;;-3.22;82.17;100465.61;1720254;83;25765;-46
2020/12/27 04:29:35;;;;;;;22.85;10.68;;;;;;;-3.25;82.15;100457.60;1719826;83;25756;-49
2020/12/27 04:32:01;;;;;;;28.85;10.78;;;;;;;-3.26;82.14;100461.78;1720156;83;26196;-45
2020/12/27 04:34:28;;;;;;;27.07;12.58;;;;;;;-3.33;82.11;100439.85;1720065;83;26316;-46
2020/12/27 04:36:55;;;;;;;25.37;10.80;;;;;;;-3.29;82.14;100437.87;1725977;82;25905;-47
2020/12/27 04:39:21;;;;;;;28.23;11.70;;;;;;;-3.29;82.09;100438.39;1678485;85;25933;-44
2020/12/27 04:41:48;;;;;;;29.25;11.10;;;;;;;-3.31;82.02;100426.70;1708188;83;25883;-45
2020/12/27 04:44:15;;;;;;;25.43;12.28;;;;;;;-3.32;82.02;100429.06;1725690;83;25762;-45
2020/12/27 04:46:42;;;;;;;29.65;12.10;;;;;;;-3.34;82.02;100423.14;1679892;85;26329;-45
2020/12/27 04:49:10;;;;;;;29.98;12.60;;;;;;;-3.36;82.00;100423.87;1725787;83;25914;-47
2020/12/27 04:51:37;;;;;;;27.70;12.82;;;;;;;-3.36;81.96;100430.49;1678309;85;26196;-45
2020/12/27 04:54:04;;;;;;;27.00;11.10;;;;;;;-3.38;81.94;100431.23;1708095;83;26085;-45
2020/12/27 04:56:32;;;;;;;22.42;11.40;;;;;;;-3.40;81.98;100435.41;1726180;83;26305;-47
2020/12/27 04:58:59;;;;;;;24.18;10.98;;;;;;;-3.42;81.97;100435.33;1693855;84;25721;-44
2020/12/27 05:01:25;;;;;;;29.02;11.95;;;;;;;-3.43;81.95;100418.62;1693864;84;26424;-49
2020/12/27 05:03:56;;;;;;;27.85;11.08;;;;;;;-3.44;81.98;100422.31;1693646;84;25730;-45
2020/12/27 05:06:23;;;;;;;32.23;13.53;;;;;;;-3.47;81.93;100418.77;1738529;82;25729;-48
2020/12/27 05:08:49;;;;;;;26.82;13.30;;;;;;;-3.48;81.92;100426.39;1738590;82;25739;-48
2020/12/27 05:11:17;;;;;;;26.42;11.88;;;;;;;-3.50;81.94;100428.45;1738754;82;25636;-48
2020/12/27 05:13:48;;;;;;;28.25;13.22;;;;;;;-3.51;81.95;100435.27;1738780;82;25723;-49
2020/12/27 05:16:15;;;;;;;28.17;13.00;;;;;;;-3.53;81.92;100426.22;1738552;82;25687;-48
2020/12/27 05:18:43;;;;;;;27.27;12.88;;;;;;;-3.55;81.94;100425.62;1736540;82;25705;-47
2020/12/27 05:21:10;;;;;;;32.80;13.10;;;;;;;-3.55;81.92;100417.69;1713784;82;25736;-49
2020/12/27 05:23:37;;;;;;;29.98;14.58;;;;;;;-3.55;81.98;100426.14;1740782;82;25805;-49
2020/12/27 05:26:06;;;;;;;26.80;13.00;;;;;;;-3.57;81.94;100433.77;1740709;82;25698;-47
2020/12/27 05:28:34;;;;;;;37.63;15.68;;;;;;;-3.58;81.95;100440.06;1740693;82;25978;-45
2020/12/27 05:31:14;;;;;;;27.45;13.78;;;;;;;-3.57;81.96;100429.00;1740703;82;25657;-48
2020/12/27 05:33:42;;;;;;;25.92;12.70;;;;;;;-3.57;81.96;100417.10;1740425;82;25672;-45
2020/12/27 05:36:13;;;;;;;31.33;14.38;;;;;;;-3.55;81.98;100420.34;1740641;80;26288;-46
2020/12/27 05:38:45;;;;;;;32.15;14.13;;;;;;;-3.57;81.95;100429.80;1740689;82;26684;-44
2020/12/27 05:41:17;;;;;;;32.83;15.08;;;;;;;-3.58;81.90;100430.81;1740604;82;25616;-47
2020/12/27 05:43:44;;;;;;;39.80;15.63;;;;;;;-3.58;81.89;100418.91;1739514;81;25685;-46
2020/12/27 05:46:16;;;;;;;38.45;15.65;;;;;;;-3.55;81.91;100426.14;1740667;81;25631;-45
2020/12/27 05:48:46;;;;;;;31.65;15.48;;;;;;;-3.56;81.86;100429.28;1725567;82;25615;-47
2020/12/27 05:51:14;;;;;;;;;;;;;;;-3.56;81.81;100421.34;1743128;82;26729;-49
2020/12/27 05:53:44;;;;;;;31.85;14.00;;;;;;;-3.56;81.75;100437.22;1740710;82;25629;-45
2020/12/27 05:56:14;;;;;;;37.93;16.62;;;;;;;-3.55;81.78;100428.27;1725633;82;25740;-48
2020/12/27 05:58:42;;;;;;;;;;;;;;;-3.55;81.72;100426.14;1743369;82;25745;-45
2020/12/27 06:01:23;;;;;;;22.27;10.13;;;;;;;-3.60;81.72;100418.84;1730513;82;25617;-48
2020/12/27 06:04:01;;;;;;;33.30;15.00;;;;;;;-3.57;81.68;100421.87;1734196;81;25761;-49
2020/12/27 06:07:03;;;;;;;32.65;16.52;;;;;;;-3.58;81.63;100424.72;1733750;81;25669;-47
2020/12/27 06:09:54;;;;;;;39.27;16.65;;;;;;;-3.60;81.61;100420.97;1734073;82;25687;-47
2020/12/27 06:12:22;;;;;;;38.75;16.02;;;;;;;-3.60;81.57;100428.90;1725624;82;25964;-46
2020/12/27 06:15:06;;;;;;;33.73;15.90;;;;;;;-3.63;81.58;100416.09;1740267;82;25590;-49
2020/12/27 06:17:56;;;;;;;37.88;16.60;;;;;;;-3.60;81.55;100418.32;1718163;82;25722;-49
2020/12/27 06:20:25;;;;;;;35.73;15.80;;;;;;;-3.61;81.59;100417.20;1740250;81;25774;-46
2020/12/27 06:22:53;;;;;;;38.95;16.77;;;;;;;-3.60;81.53;100417.52;1740467;81;25658;-47
2020/12/27 06:25:20;;;;;;;31.68;16.07;;;;;;;-3.62;81.48;100409.00;1740380;81;25682;-47
2020/12/27 06:27:47;;;;;;;35.75;16.17;;;;;;;-3.62;81.48;100415.61;1741025;81;25723;-46
2020/12/27 06:30:30;;;;;;;30.45;15.28;;;;;;;-3.63;81.44;100416.09;1740455;81;26336;-44
2020/12/27 06:33:08;;;;;;;36.00;17.70;;;;;;;-3.64;81.39;100413.69;1740827;82;25695;-45
2020/12/27 06:35:37;;;;;;;36.90;16.55;;;;;;;-3.64;81.39;100416.33;1740330;81;26326;-44
2020/12/27 06:38:23;;;;;;;36.53;16.75;;;;;;;-3.64;81.42;100417.66;1741008;81;26168;-45
2020/12/27 06:41:08;;;;;;;35.65;16.35;;;;;;;-3.65;81.38;100414.18;1740610;82;25639;-45
2020/12/27 06:43:45;;;;;;;31.02;14.78;;;;;;;-3.64;81.39;100415.02;1740465;82;25833;-46
2020/12/27 06:46:28;;;;;;;39.20;16.67;;;;;;;-3.65;81.35;100416.83;1740827;82;25692;-45
2020/12/27 06:49:13;;;;;;;32.60;15.58;;;;;;;-3.64;81.35;100416.33;1740448;81;25209;-46
2020/12/27 06:51:43;;;;;;;37.50;17.60;;;;;;;-3.62;81.28;100407.16;1761141;78;25716;-46
2020/12/27 06:54:12;;;;;;;37.83;16.70;;;;;;;-3.60;81.35;100404.30;1777362;80;25877;-48
2020/12/27 06:56:41;;;;;;;33.65;17.25;;;;;;;-3.60;81.26;100393.20;1777942;80;25878;-49
2020/12/27 06:59:08;;;;;;;35.20;17.30;;;;;;;-3.58;81.21;100392.47;1777489;80;25688;-49
2020/12/27 07:01:36;;;;;;;32.50;14.83;;;;;;;-3.57;81.22;100395.42;1777570;80;25780;-49
2020/12/27 07:04:15;;;;;;;35.88;16.87;;;;;;;-3.55;81.12;100395.73;1777393;80;25742;-47
2020/12/27 07:06:48;;;;;;;34.67;16.85;;;;;;;-3.53;81.24;100395.81;1774107;80;25791;-50
2020/12/27 07:09:25;;;;;;;35.68;16.25;;;;;;;-3.51;81.20;100392.43;1777490;80;25748;-50
2020/12/27 07:12:10;;;;;;;28.83;13.72;;;;;;;-3.48;81.18;100404.44;1777481;80;25712;-50
2020/12/27 07:14:41;;;;;;;33.08;14.43;;;;;;;-3.45;80.92;100410.11;1777432;80;25640;-48
2020/12/27 07:17:10;;;;;;;32.75;15.70;;;;;;;-3.43;81.03;100401.44;1777437;80;25638;-46
2020/12/27 07:19:38;;;;;;;34.00;14.53;;;;;;;-3.39;80.88;100404.46;1773637;77;25675;-49
2020/12/27 07:22:11;;;;;;;36.73;15.43;;;;;;;-3.35;80.77;100399.55;1777541;80;26200;-50
2020/12/27 07:24:40;;;;;;;34.45;15.75;;;;;;;-3.31;80.76;100392.30;1777450;80;26014;-47
2020/12/27 07:27:11;;;;;;;28.70;13.80;;;;;;;-3.27;80.80;100381.61;1777826;80;25648;-48
2020/12/27 07:29:38;;;;;;;41.55;15.85;;;;;;;-3.24;80.65;100379.83;1775971;80;25959;-48
2020/12/27 07:32:05;;;;;;;40.58;15.25;;;;;;;-3.20;80.36;100384.20;1777831;80;25659;-46
2020/12/27 07:34:32;;;;;;;28.02;13.88;;;;;;;-3.14;80.33;100380.68;1777229;80;27170;-49
2020/12/27 07:37:06;;;;;;;29.57;13.60;;;;;;;-3.10;80.14;100378.41;1779948;80;25589;-45
2020/12/27 07:39:54;;;;;;;25.45;13.20;;;;;;;-3.05;79.99;100371.95;1781797;80;26393;-48
2020/12/27 07:42:33;;;;;;;24.37;12.58;;;;;;;-3.01;80.06;100373.16;1782217;80;25651;-48
2020/12/27 07:45:06;;;;;;;29.70;13.98;;;;;;;-2.96;79.47;100372.48;1781767;80;26237;-46
2020/12/27 07:47:41;;;;;;;27.37;12.90;;;;;;;-2.89;79.94;100370.09;1782225;80;25691;-48
2020/12/27 07:50:17;;;;;;;26.35;12.63;;;;;;;-2.83;79.73;100367.91;1781717;80;25699;-49
2020/12/27 07:52:54;;;;;;;28.40;13.78;;;;;;;-2.73;79.60;100371.88;1782148;80;25759;-47
2020/12/27 07:55:33;;;;;;;30.15;13.08;;;;;;;-2.66;79.63;100377.38;1781808;80;25874;-47
2020/12/27 07:58:06;;;;;;;27.17;12.88;;;;;;;-2.55;79.20;100383.02;1782063;80;26284;-46
2020/12/27 08:00:36;;;;;;;31.27;14.13;;;;;;;-2.45;79.44;100376.16;1781814;80;25971;-48
2020/12/27 08:03:10;;;;;;;32.60;14.78;;;;;;;-2.34;79.20;100369.83;1781805;80;25571;-48
2020/12/27 08:05:38;;;;;;;27.65;13.18;;;;;;;-2.24;78.81;100370.13;1781887;80;25717;-48
2020/12/27 08:08:08;;;;;;;29.18;14.00;;;;;;;-2.14;78.77;100353.70;1781864;80;26338;-49
2020/12/27 08:10:35;;;;;;;27.73;14.70;;;;;;;-2.01;78.62;100348.23;1781669;80;25689;-46
2020/12/27 08:13:04;;;;;;;29.23;15.10;;;;;;;-1.87;78.42;100355.49;1781815;80;26227;-46
2020/12/27 08:15:38;;;;;;;30.60;14.43;;;;;;;-1.70;78.45;100342.41;1781362;80;31276;-48
2020/12/27 08:18:10;;;;;;;36.77;16.45;;;;;;;-1.53;77.87;100351.33;1781745;80;25713;-48
2020/12/27 08:20:50;;;;;;;32.42;14.63;;;;;;;-1.30;76.68;100350.27;1781591;80;26480;-48
2020/12/27 08:23:18;;;;;;;28.32;14.75;;;;;;;-1.03;77.32;100342.68;1782280;80;25681;-46
2020/12/27 08:25:45;;;;;;;33.67;15.25;;;;;;;-0.77;76.44;100332.09;1781708;80;27249;-48
2020/12/27 08:28:15;;;;;;;30.35;16.52;;;;;;;-0.53;76.85;100328.08;1785269;78;26223;-47
2020/12/27 08:30:45;;;;;;;32.53;15.70;;;;;;;-0.25;76.16;100328.13;1782084;80;25604;-49
2020/12/27 08:33:14;;;;;;;;;;;;;;;-0.07;74.77;100327.16;1788075;80;25738;-50
2020/12/27 08:35:44;;;;;;;26.42;15.08;;;;;;;0.06;73.49;100339.34;1785317;80;25672;-48
2020/12/27 08:38:50;;;;;;;35.70;17.02;;;;;;;0.22;72.68;100311.15;1787855;80;26648;-49
2020/12/27 08:41:24;;;;;;;34.30;16.73;;;;;;;0.27;71.39;100319.22;1788280;80;25710;-47
2020/12/27 08:44:19;;;;;;;32.25;16.52;;;;;;;0.41;72.44;100310.94;1788192;80;25669;-46
2020/12/27 08:46:49;;;;;;;30.25;16.37;;;;;;;0.55;70.51;100320.23;1788317;80;25661;-47
2020/12/27 08:49:44;;;;;;;34.13;17.12;;;;;;;0.60;71.17;100302.22;1788305;80;25960;-47
2020/12/27 08:52:20;;;;;;;33.10;14.83;;;;;;;0.75;72.28;100290.47;1787409;80;25736;-48
2020/12/27 08:54:55;;;;;;;32.03;17.02;;;;;;;0.84;70.48;100298.85;1788155;80;25781;-49
2020/12/27 08:57:22;;;;;;;31.02;16.70;;;;;;;0.94;70.62;100306.98;1788104;80;25663;-51
2020/12/27 09:00:07;;;;;;;31.07;16.10;;;;;;;1.15;71.83;100303.28;1788015;80;25658;-46
2020/12/27 09:02:36;;;;;;;31.90;16.10;;;;;;;1.46;71.14;100317.29;1788539;80;25770;-49
2020/12/27 09:05:12;;;;;;;35.38;16.67;;;;;;;1.53;69.90;100305.61;1787902;80;26173;-49
2020/12/27 09:07:45;;;;;;;34.23;18.25;;;;;;;1.58;67.32;100309.14;1788542;80;25366;-46
2020/12/27 09:10:16;;;;;;;33.92;16.07;;;;;;;1.65;69.52;100291.11;1788060;80;25622;-46
2020/12/27 09:13:04;;;;;;;35.40;16.77;;;;;;;1.71;67.73;100280.51;1788204;80;25678;-50
2020/12/27 09:15:35;;;;;;;31.20;16.80;;;;;;;1.72;67.83;100286.92;1788442;80;25634;-49
2020/12/27 09:18:08;;;;;;;32.83;16.95;;;;;;;1.85;70.19;100270.50;1788373;80;27992;-50
2020/12/27 09:20:38;;;;;;;30.05;15.80;;;;;;;2.08;68.48;100273.95;1784371;80;25602;-50
2020/12/27 09:23:18;;;;;;;31.95;16.50;;;;;;;2.21;66.50;100269.53;1788437;80;26371;-49
2020/12/27 09:26:07;;;;;;;28.80;15.35;;;;;;;2.36;67.95;100264.04;1886246;76;34754;-47
2020/12/27 09:28:36;;;;;;;33.30;17.15;;;;;;;2.35;64.54;100261.08;1857137;77;26326;-47
2020/12/27 09:31:14;;;;;;;31.62;15.80;;;;;;;2.31;66.85;100253.31;1857297;77;26706;-48
2020/12/27 09:33:46;;;;;;;30.12;16.55;;;;;;;2.48;67.40;100241.97;1857212;77;26276;-51
2020/12/27 09:36:14;;;;;;;30.97;16.10;;;;;;;2.74;66.09;100240.80;1857114;77;25608;-52
2020/12/27 09:38:44;;;;;;;33.73;17.05;;;;;;;2.85;64.78;100242.48;1857148;77;25980;-51
2020/12/27 09:41:18;;;;;;;31.33;16.65;;;;;;;2.76;64.58;100239.49;1856239;77;25612;-50
2020/12/27 09:43:55;;;;;;;29.80;15.23;;;;;;;2.70;63.28;100229.03;1857245;77;26732;-48
2020/12/27 09:46:45;;;;;;;33.15;16.62;;;;;;;2.75;64.03;100222.38;1856853;77;25672;-52
2020/12/27 09:49:23;;;;;;;30.72;15.70;;;;;;;2.83;63.36;100218.41;1857462;77;25661;-51
2020/12/27 09:52:10;;;;;;;34.05;16.27;;;;;;;3.25;63.88;100214.35;1853535;77;25684;-50
2020/12/27 09:54:40;;;;;;;31.90;16.90;;;;;;;3.59;64.40;100207.20;1857032;77;25703;-49
2020/12/27 09:57:15;;;;;;;28.17;15.63;;;;;;;3.81;61.66;100210.99;1856489;77;27715;-50
2020/12/27 09:59:43;;;;;;;27.17;14.60;;;;;;;3.86;61.44;100200.84;1850787;77;25747;-51
2020/12/27 10:02:10;;;;;;;29.12;15.53;;;;;;;3.93;57.86;100200.86;1847737;77;26424;-51
2020/12/27 10:04:37;;;;;;;30.60;15.98;;;;;;;3.92;60.83;100185.86;1847048;77;25765;-52
2020/12/27 10:07:04;;;;;;;34.63;17.12;;;;;;;3.95;60.52;100203.78;1810666;79;25634;-51
2020/12/27 10:09:34;;;;;;;29.87;15.63;;;;;;;3.87;59.00;100193.09;1778111;80;25704;-52
2020/12/27 10:12:02;;;;;;;33.18;16.12;;;;;;;3.99;58.71;100193.63;1778686;80;26307;-52
2020/12/27 10:14:30;;;;;;;28.25;14.80;;;;;;;3.97;59.04;100183.73;1778328;79;25809;-49
2020/12/27 10:16:59;;;;;;;27.82;15.72;;;;;;;4.16;59.50;100176.50;1778862;79;25765;-50
2020/12/27 10:19:28;;;;;;;27.75;14.30;;;;;;;4.40;60.71;100175.41;1758289;79;26171;-50
2020/12/27 10:21:55;;;;;;;28.17;15.15;;;;;;;4.61;60.06;100173.47;1750601;81;26169;-53
2020/12/27 10:24:28;;;;;;;24.00;14.03;;;;;;;4.72;58.53;100168.91;1769290;79;25695;-54
2020/12/27 10:26:54;;;;;;;27.15;14.98;;;;;;;4.81;58.71;100160.56;1772212;80;25738;-53
2020/12/27 10:29:21;;;;;;;29.07;14.35;;;;;;;5.04;59.03;100153.23;1794627;79;25716;-53
2020/12/27 10:32:00;;;;;;;28.25;15.32;;;;;;;5.34;55.20;100164.08;1794499;79;26278;-52
2020/12/27 10:34:28;;;;;;;29.80;15.35;;;;;;;5.43;55.84;100171.80;1793656;79;26677;-51
2020/12/27 10:36:58;;;;;;;29.77;15.45;;;;;;;5.31;54.12;100152.55;1794245;79;25971;-53
2020/12/27 10:39:26;;;;;;;28.35;15.03;;;;;;;5.23;54.47;100162.00;1793891;79;25661;-53
2020/12/27 10:41:55;;;;;;;26.97;14.60;;;;;;;4.92;54.13;100155.95;1794094;79;25673;-54
2020/12/27 10:44:23;;;;;;;30.32;15.23;;;;;;;4.77;55.17;100171.03;1794035;79;25907;-54
2020/12/27 10:46:51;;;;;;;26.37;14.35;;;;;;;4.69;53.80;100135.41;1794255;79;25708;-53
2020/12/27 10:49:20;;;;;;;25.72;15.03;;;;;;;4.81;56.61;100137.78;1793747;79;25777;-53
2020/12/27 10:51:48;;;;;;;24.80;13.68;;;;;;;5.00;54.02;100140.65;1794374;79;25714;-52
2020/12/27 10:54:15;;;;;;;27.90;14.75;;;;;;;5.17;56.19;100108.91;1817309;78;25771;-54
2020/12/27 10:56:44;;;;;;;23.50;13.00;;;;;;;5.31;56.63;100100.25;1817330;78;25694;-53
2020/12/27 10:59:14;;;;;;;23.50;12.53;;;;;;;5.69;57.14;100117.98;1817418;78;26724;-54
2020/12/27 11:01:46;;;;;;;25.85;13.70;;;;;;;5.62;55.47;100118.30;1816835;78;25648;-52
2020/12/27 11:04:15;;;;;;;22.13;12.18;;;;;;;5.56;52.97;100095.27;1816738;78;25713;-53
2020/12/27 11:06:42;;;;;;;27.37;14.70;;;;;;;5.34;52.40;100089.77;1817406;78;25692;-52
2020/12/27 11:09:09;;;;;;;23.95;13.32;;;;;;;5.40;54.80;100091.34;1816759;78;25611;-52
2020/12/27 11:11:37;;;;;;;23.12;12.65;;;;;;;5.36;54.67;100077.42;1817307;78;26721;-52
2020/12/27 11:14:05;;;;;;;24.18;12.23;;;;;;;5.63;55.30;100085.55;1817233;78;25872;-51
2020/12/27 11:16:32;;;;;;;22.98;12.25;;;;;;;5.67;53.79;100077.19;1817006;78;25653;-53
2020/12/27 11:19:01;;;;;;;23.98;11.25;;;;;;;5.59;53.20;100079.40;1817073;78;25704;-53
2020/12/27 11:21:29;;;;;;;19.98;11.18;;;;;;;5.54;51.22;100067.37;1817535;78;25673;-52
2020/12/27 11:23:56;;;;;;;21.23;11.08;;;;;;;5.51;53.13;100050.48;1817380;78;25818;-54
2020/12/27 11:26:24;;;;;;;18.07;10.45;;;;;;;5.59;54.10;100043.73;1821859;78;25862;-57